createdAt,value
2023-01-29T00:00:31.160Z,33.90
2023-01-29T00:02:59.369Z,34.50
2023-01-29T00:05:28.956Z,33.43
2023-01-29T00:07:57.706Z,28.67
2023-01-29T00:10:27.018Z,30.03
2023-01-29T00:12:55.319Z,32.43
2023-01-29T00:15:23.494Z,32.00
2023-01-29T00:17:51.654Z,27.93
2023-01-29T00:20:20.177Z,31.27
2023-01-29T00:22:49.878Z,29.00
2023-01-29T00:25:18.176Z,28.77
2023-01-29T00:27:46.349Z,33.37
2023-01-29T00:30:19.324Z,27.47
2023-01-29T00:32:48.179Z,28.17
2023-01-29T00:35:16.326Z,30.10
2023-01-29T00:37:44.504Z,33.07
2023-01-29T00:40:15.532Z,26.20
2023-01-29T00:43:03.190Z,29.00
2023-01-29T00:45:31.547Z,30.80
2023-01-29T00:47:59.686Z,29.57
2023-01-29T00:50:27.768Z,32.33
2023-01-29T00:52:56.104Z,30.93
2023-01-29T00:55:25.695Z,30.90
2023-01-29T00:57:53.841Z,33.30
2023-01-29T01:00:22.469Z,33.93
2023-01-29T01:03:07.616Z,33.27
2023-01-29T01:05:36.924Z,34.40
2023-01-29T01:08:25.770Z,37.17
2023-01-29T01:11:01.546Z,33.63
2023-01-29T01:13:29.707Z,37.17
2023-01-29T01:15:58.639Z,37.30
2023-01-29T01:18:27.085Z,36.47
2023-01-29T01:20:58.876Z,40.87
2023-01-29T01:23:28.005Z,39.20
2023-01-29T01:25:56.192Z,31.00
2023-01-29T01:28:25.782Z,34.20
2023-01-29T01:30:53.892Z,35.33
2023-01-29T01:33:22.127Z,35.93
2023-01-29T01:35:50.189Z,33.93
2023-01-29T01:38:18.250Z,32.33
2023-01-29T01:40:47.761Z,35.33
2023-01-29T01:43:15.897Z,36.67
2023-01-29T01:45:46.819Z,33.77
2023-01-29T01:48:19.005Z,36.37
2023-01-29T01:50:50.632Z,33.00
2023-01-29T01:53:23.773Z,33.27
2023-01-29T01:55:57.078Z,34.07
2023-01-29T01:58:29.268Z,36.10
2023-01-29T02:00:59.257Z,29.80
2023-01-29T02:03:48.800Z,32.23
2023-01-29T02:06:34.696Z,34.20
2023-01-29T02:09:25.929Z,31.90
2023-01-29T02:11:54.047Z,33.70
2023-01-29T02:14:23.024Z,35.57
2023-01-29T02:16:53.279Z,42.07
2023-01-29T02:19:33.822Z,32.90
2023-01-29T02:22:28.355Z,32.53
2023-01-29T02:25:09.939Z,35.37
2023-01-29T02:28:13.384Z,37.50
2023-01-29T02:30:46.349Z,30.47
2023-01-29T02:33:22.585Z,34.23
2023-01-29T02:36:00.446Z,40.67
2023-01-29T02:38:37.589Z,36.30
2023-01-29T02:41:13.121Z,37.63
2023-01-29T02:43:47.523Z,40.23
2023-01-29T02:46:24.283Z,38.37
2023-01-29T02:49:00.394Z,33.13
2023-01-29T02:51:37.476Z,34.97
2023-01-29T02:54:09.724Z,34.13
2023-01-29T02:56:41.466Z,34.77
2023-01-29T02:59:17.349Z,34.77
2023-01-29T03:01:51.299Z,31.93
2023-01-29T03:04:24.289Z,36.77
2023-01-29T03:06:59.710Z,37.10
2023-01-29T03:09:34.154Z,32.17
2023-01-29T03:12:20.082Z,28.53
2023-01-29T03:15:10.155Z,35.20
2023-01-29T03:17:43.113Z,33.50
2023-01-29T03:20:16.356Z,33.10
2023-01-29T03:22:50.563Z,32.93
2023-01-29T03:25:39.393Z,37.57
2023-01-29T03:28:28.616Z,33.97
2023-01-29T03:31:21.148Z,40.90
2023-01-29T03:34:05.098Z,37.07
2023-01-29T03:36:39.927Z,36.10
2023-01-29T03:39:11.572Z,35.27
2023-01-29T03:41:47.753Z,32.73
2023-01-29T03:44:20.361Z,34.87
2023-01-29T03:46:57.470Z,37.20
2023-01-29T03:49:35.073Z,36.03
2023-01-29T03:52:09.733Z,32.27
2023-01-29T03:54:51.628Z,38.63
2023-01-29T03:57:31.113Z,31.10
2023-01-29T04:00:08.476Z,30.97
2023-01-29T04:03:07.084Z,33.93
2023-01-29T04:05:41.629Z,33.53
2023-01-29T04:08:27.695Z,36.27
2023-01-29T04:10:58.448Z,34.07
2023-01-29T04:13:30.198Z,28.70
2023-01-29T04:16:01.091Z,36.80
2023-01-29T04:18:51.975Z,34.60
2023-01-29T04:21:27.155Z,38.37
2023-01-29T04:23:55.645Z,29.30
2023-01-29T04:26:38.451Z,31.47
2023-01-29T04:29:23.282Z,32.13
2023-01-29T04:32:06.107Z,42.83
2023-01-29T04:34:51.143Z,36.47
2023-01-29T04:37:28.583Z,37.80
2023-01-29T04:40:04.910Z,34.47
2023-01-29T04:42:38.891Z,32.70
2023-01-29T04:45:14.816Z,27.93
2023-01-29T04:47:50.369Z,31.50
2023-01-29T04:50:26.782Z,28.60
2023-01-29T04:53:03.636Z,32.87
2023-01-29T04:55:37.506Z,31.43
2023-01-29T04:58:12.417Z,30.23
2023-01-29T05:00:43.225Z,25.77
2023-01-29T05:03:14.760Z,28.70
2023-01-29T05:05:48.067Z,21.27
2023-01-29T05:08:19.511Z,24.73
2023-01-29T05:10:49.475Z,25.20
2023-01-29T05:13:20.141Z,31.23
2023-01-29T05:15:51.829Z,24.77
2023-01-29T05:18:20.363Z,26.73
2023-01-29T05:20:50.710Z,27.00
2023-01-29T05:23:19.542Z,25.27
2023-01-29T05:25:48.348Z,28.90
2023-01-29T05:28:16.896Z,24.83
2023-01-29T05:30:46.986Z,24.30
2023-01-29T05:33:17.455Z,20.53
2023-01-29T05:35:46.014Z,24.67
2023-01-29T05:38:16.323Z,23.30
2023-01-29T05:40:44.787Z,26.47
2023-01-29T05:43:18.194Z,27.27
2023-01-29T05:45:54.815Z,22.97
2023-01-29T05:48:23.221Z,22.60
2023-01-29T05:50:51.792Z,24.53
2023-01-29T05:53:21.372Z,24.17
2023-01-29T05:55:49.541Z,19.37
2023-01-29T05:58:19.701Z,25.63
2023-01-29T06:00:47.816Z,19.97
2023-01-29T06:03:16.957Z,19.13
2023-01-29T06:05:45.084Z,19.73
2023-01-29T06:08:13.389Z,18.73
2023-01-29T06:10:42.866Z,16.50
2023-01-29T06:13:10.959Z,16.27
2023-01-29T06:15:41.211Z,21.23
2023-01-29T06:18:09.521Z,16.60
2023-01-29T06:20:38.410Z,23.93
2023-01-29T06:23:06.774Z,21.83
2023-01-29T06:25:34.884Z,17.13
2023-01-29T06:28:04.587Z,17.80
2023-01-29T06:30:33.018Z,17.17
2023-01-29T06:33:01.791Z,21.23
2023-01-29T06:35:29.923Z,20.37
2023-01-29T06:37:58.598Z,26.03
2023-01-29T06:40:26.769Z,33.30
2023-01-29T06:42:54.850Z,31.40
2023-01-29T06:45:24.372Z,31.53
2023-01-29T06:47:52.744Z,32.07
2023-01-29T06:50:20.998Z,32.93
2023-01-29T06:52:49.168Z,33.30
2023-01-29T06:55:17.267Z,34.97
2023-01-29T06:57:45.354Z,28.73
2023-01-29T07:00:15.634Z,27.13
2023-01-29T07:02:45.508Z,31.90
2023-01-29T07:05:13.737Z,32.23
2023-01-29T07:07:41.837Z,25.23
2023-01-29T07:10:11.169Z,29.83
2023-01-29T07:12:39.285Z,31.53
2023-01-29T07:15:10.229Z,25.10
2023-01-29T07:17:38.381Z,22.73
2023-01-29T07:20:09.651Z,23.30
2023-01-29T07:22:37.888Z,20.23
2023-01-29T07:25:07.149Z,20.87
2023-01-29T07:27:35.225Z,19.63
2023-01-29T07:30:03.263Z,20.13
2023-01-29T07:32:31.390Z,21.83
2023-01-29T07:34:59.453Z,19.43
2023-01-29T07:37:28.952Z,21.77
2023-01-29T07:39:57.023Z,22.20
2023-01-29T07:42:25.096Z,18.90
2023-01-29T07:44:53.185Z,22.80
2023-01-29T07:47:21.319Z,24.47
2023-01-29T07:49:49.391Z,24.08
2023-01-29T07:52:20.263Z,31.00
2023-01-29T07:54:51.407Z,32.30
2023-01-29T07:57:19.462Z,29.33
2023-01-29T07:59:47.586Z,36.60
2023-01-29T08:02:15.921Z,29.83
2023-01-29T08:04:44.064Z,26.40
2023-01-29T08:07:12.140Z,25.80
2023-01-29T08:09:40.267Z,25.57
2023-01-29T08:12:09.855Z,31.57
2023-01-29T08:14:38.034Z,22.53
2023-01-29T08:17:06.343Z,22.97
2023-01-29T08:19:34.550Z,24.33
2023-01-29T08:22:02.627Z,29.97
2023-01-29T08:24:41.600Z,37.53
2023-01-29T08:27:20.235Z,35.03
2023-01-29T08:29:48.327Z,29.20
2023-01-29T08:32:16.392Z,21.77
2023-01-29T08:34:44.492Z,23.30
2023-01-29T08:37:12.547Z,25.53
2023-01-29T08:42:08.556Z,23.33
2023-01-29T08:44:38.038Z,23.77
2023-01-29T08:47:06.209Z,24.73
2023-01-29T08:49:34.359Z,21.63
2023-01-29T08:52:03.216Z,22.10
2023-01-29T08:54:32.065Z,16.73
2023-01-29T08:57:00.212Z,24.60
2023-01-29T08:59:28.261Z,19.50
2023-01-29T09:01:57.717Z,23.30
2023-01-29T09:04:26.149Z,20.43
2023-01-29T09:06:54.189Z,21.10
2023-01-29T09:09:22.266Z,20.93
2023-01-29T09:11:50.311Z,22.30
2023-01-29T09:14:18.530Z,20.53
2023-01-29T09:16:46.591Z,20.23
2023-01-29T09:19:16.231Z,19.93
2023-01-29T09:21:44.442Z,24.03
2023-01-29T09:24:12.529Z,20.23
2023-01-29T09:26:40.596Z,24.67
2023-01-29T09:29:10.893Z,18.33
2023-01-29T09:31:39.017Z,18.77
2023-01-29T09:34:07.149Z,18.47
2023-01-29T09:36:36.633Z,19.00
2023-01-29T09:39:05.023Z,20.37
2023-01-29T09:41:46.072Z,18.47
2023-01-29T09:44:20.856Z,12.87
2023-01-29T09:46:51.540Z,12.10
2023-01-29T09:49:25.868Z,11.13
2023-01-29T09:52:00.503Z,10.57
2023-01-29T09:54:32.445Z,11.20
2023-01-29T09:57:01.933Z,6.40
2023-01-29T09:59:32.642Z,10.87
2023-01-29T10:02:11.518Z,9.03
2023-01-29T10:05:17.010Z,10.03
2023-01-29T10:08:17.637Z,12.20
2023-01-29T10:10:51.744Z,9.27
2023-01-29T10:13:30.812Z,11.40
2023-01-29T10:16:17.044Z,10.17
2023-01-29T10:19:28.411Z,10.40
2023-01-29T10:22:23.626Z,13.17
2023-01-29T10:24:57.104Z,10.13
2023-01-29T10:27:33.237Z,9.23
2023-01-29T10:30:03.316Z,8.40
2023-01-29T10:32:33.096Z,10.67
2023-01-29T10:35:05.490Z,13.27
2023-01-29T10:37:40.783Z,13.00
2023-01-29T10:40:22.579Z,11.90
2023-01-29T10:42:57.297Z,11.53
2023-01-29T10:45:38.087Z,10.23
2023-01-29T10:48:35.338Z,11.43
2023-01-29T10:51:14.641Z,11.13
2023-01-29T10:53:52.954Z,10.67
2023-01-29T10:56:49.620Z,11.00
2023-01-29T10:59:33.439Z,11.37
2023-01-29T11:02:03.412Z,16.80
2023-01-29T11:04:33.566Z,13.00
2023-01-29T11:07:02.696Z,11.87
2023-01-29T11:09:36.598Z,14.30
2023-01-29T11:12:12.809Z,13.27
2023-01-29T11:14:45.723Z,13.83
2023-01-29T11:17:18.171Z,11.70
2023-01-29T11:19:48.600Z,11.83
2023-01-29T11:22:20.097Z,11.20
2023-01-29T11:25:08.208Z,12.57
2023-01-29T11:27:44.319Z,12.83
2023-01-29T11:30:20.458Z,13.60
2023-01-29T11:32:53.976Z,12.33
2023-01-29T11:35:24.895Z,12.10
2023-01-29T11:37:53.335Z,13.00
2023-01-29T11:40:37.684Z,13.97
2023-01-29T11:43:22.387Z,18.13
2023-01-29T11:45:52.986Z,16.17
2023-01-29T11:48:25.622Z,11.80
2023-01-29T11:50:56.740Z,13.23
2023-01-29T11:53:38.830Z,12.20
2023-01-29T11:56:18.111Z,13.97
2023-01-29T11:58:50.675Z,15.73
2023-01-29T12:01:25.945Z,15.70
2023-01-29T12:03:55.395Z,12.47
2023-01-29T12:06:25.956Z,15.20
2023-01-29T12:08:58.011Z,13.40
2023-01-29T12:11:29.993Z,15.23
2023-01-29T12:14:02.092Z,13.63
2023-01-29T12:16:35.116Z,18.53
2023-01-29T12:19:12.542Z,12.10
2023-01-29T12:21:47.975Z,16.17
2023-01-29T12:24:30.978Z,13.57
2023-01-29T12:27:06.379Z,14.50
2023-01-29T12:29:42.856Z,11.77
2023-01-29T12:32:23.447Z,13.87
2023-01-29T12:34:56.780Z,14.80
2023-01-29T12:37:30.132Z,12.47
2023-01-29T12:39:58.361Z,13.37
2023-01-29T12:42:27.619Z,13.37
2023-01-29T12:45:00.872Z,16.77
2023-01-29T12:47:34.932Z,13.97
2023-01-29T12:50:08.168Z,13.60
2023-01-29T12:52:41.312Z,16.10
2023-01-29T12:55:17.620Z,11.43
2023-01-29T12:57:51.718Z,11.20
2023-01-29T13:00:24.207Z,14.30
2023-01-29T13:02:59.945Z,12.97
2023-01-29T13:05:32.153Z,13.37
2023-01-29T13:08:06.856Z,11.57
2023-01-29T13:10:39.939Z,13.43
2023-01-29T13:13:17.205Z,14.00
2023-01-29T13:15:48.451Z,14.33
2023-01-29T13:18:33.618Z,14.33
2023-01-29T13:21:03.172Z,15.90
2023-01-29T13:23:36.880Z,13.33
2023-01-29T13:26:06.135Z,14.00
2023-01-29T13:28:34.686Z,11.53
2023-01-29T13:31:16.021Z,10.43
2023-01-29T13:33:45.319Z,14.87
2023-01-29T13:36:20.064Z,16.87
2023-01-29T13:39:00.505Z,12.40
2023-01-29T13:41:38.228Z,10.63
2023-01-29T13:44:09.808Z,13.23
2023-01-29T13:46:43.502Z,13.70
2023-01-29T13:49:37.081Z,9.93
2023-01-29T13:52:18.906Z,10.90
2023-01-29T13:54:58.812Z,9.73
2023-01-29T13:57:54.676Z,12.13
2023-01-29T14:00:57.942Z,12.77
2023-01-29T14:04:03.729Z,11.30
2023-01-29T14:06:46.210Z,10.90
2023-01-29T14:10:02.629Z,11.57
2023-01-29T14:12:38.742Z,13.90
2023-01-29T14:15:25.861Z,16.80
2023-01-29T14:18:01.951Z,13.73
2023-01-29T14:20:48.578Z,16.43
2023-01-29T14:23:35.769Z,12.77
2023-01-29T14:26:07.504Z,16.47
2023-01-29T14:28:36.475Z,14.30
2023-01-29T14:31:05.811Z,14.33
2023-01-29T14:33:39.800Z,11.80
2023-01-29T14:36:15.775Z,15.47
2023-01-29T14:38:51.893Z,14.07
2023-01-29T14:41:28.513Z,13.87
2023-01-29T14:44:29.770Z,14.90
2023-01-29T14:46:58.888Z,15.40
2023-01-29T14:49:53.948Z,16.87
2023-01-29T14:52:30.099Z,13.03
2023-01-29T14:55:01.776Z,14.70
2023-01-29T14:57:31.983Z,19.17
2023-01-29T15:00:05.439Z,17.63
2023-01-29T15:02:40.976Z,22.90
2023-01-29T15:05:14.121Z,24.23
2023-01-29T15:07:49.968Z,20.43
2023-01-29T15:10:23.401Z,17.80
2023-01-29T15:12:58.313Z,11.80
2023-01-29T15:15:37.531Z,12.87
2023-01-29T15:18:09.560Z,14.80
2023-01-29T15:20:39.935Z,13.30
2023-01-29T15:26:07.888Z,13.97
2023-01-29T15:28:37.228Z,12.47
2023-01-29T15:31:11.444Z,14.83
2023-01-29T15:33:47.040Z,12.10
2023-01-29T15:36:22.378Z,15.87
2023-01-29T15:39:05.628Z,13.37
2023-01-29T15:41:35.795Z,14.03
2023-01-29T15:44:04.767Z,15.40
2023-01-29T15:46:36.244Z,14.17
2023-01-29T15:49:10.090Z,14.27
2023-01-29T15:51:38.443Z,12.20
2023-01-29T15:54:14.685Z,15.10
2023-01-29T15:56:49.994Z,11.23
2023-01-29T15:59:21.128Z,12.57
2023-01-29T16:01:50.409Z,15.40
2023-01-29T16:04:26.914Z,12.40
2023-01-29T16:06:57.373Z,15.10
2023-01-29T16:09:29.248Z,17.43
2023-01-29T16:12:01.051Z,14.67
2023-01-29T16:14:31.844Z,13.80
2023-01-29T16:17:14.850Z,17.40
2023-01-29T16:19:44.203Z,14.50
2023-01-29T16:22:13.059Z,11.20
2023-01-29T16:24:42.688Z,13.40
2023-01-29T16:27:16.601Z,14.97
2023-01-29T16:29:45.940Z,12.00
2023-01-29T16:32:16.927Z,14.50
2023-01-29T16:34:49.132Z,16.83
2023-01-29T16:37:25.893Z,16.77
2023-01-29T16:39:55.543Z,16.67
2023-01-29T16:42:28.878Z,15.57
2023-01-29T16:45:06.568Z,13.80
2023-01-29T16:47:38.259Z,17.13
2023-01-29T16:50:29.523Z,16.37
2023-01-29T16:53:02.990Z,13.57
2023-01-29T16:55:42.572Z,15.37
2023-01-29T16:58:17.532Z,18.17
2023-01-29T17:00:49.150Z,13.47
2023-01-29T17:03:23.920Z,13.17
2023-01-29T17:05:53.665Z,13.83
2023-01-29T17:08:27.611Z,14.90
2023-01-29T17:10:57.572Z,16.03
2023-01-29T17:13:33.230Z,16.03
2023-01-29T17:16:04.795Z,14.47
2023-01-29T17:18:35.555Z,20.07
2023-01-29T17:21:04.829Z,20.77
2023-01-29T17:23:33.654Z,15.17
2023-01-29T17:26:07.507Z,14.53
2023-01-29T17:28:40.342Z,15.63
2023-01-29T17:31:10.291Z,17.03
2023-01-29T17:33:44.566Z,17.17
2023-01-29T17:36:17.439Z,19.93
2023-01-29T17:38:47.701Z,17.00
2023-01-29T17:41:24.246Z,17.40
2023-01-29T17:43:59.006Z,19.57
2023-01-29T17:46:33.954Z,19.33
2023-01-29T17:49:07.931Z,19.03
2023-01-29T17:51:37.711Z,15.77
2023-01-29T17:54:08.150Z,21.00
2023-01-29T17:56:37.714Z,17.90
2023-01-29T17:59:15.868Z,18.87
2023-01-29T18:01:48.898Z,18.27
2023-01-29T18:04:17.923Z,16.40
2023-01-29T18:06:50.028Z,18.20
2023-01-29T18:09:23.449Z,20.43
2023-01-29T18:11:53.443Z,17.43
2023-01-29T18:14:24.959Z,17.30
2023-01-29T18:16:58.275Z,16.93
2023-01-29T18:19:32.152Z,16.97
2023-01-29T18:22:02.107Z,15.37
2023-01-29T18:24:31.619Z,18.50
2023-01-29T18:27:02.222Z,23.33
2023-01-29T18:29:36.803Z,17.83
2023-01-29T18:32:06.287Z,22.10
2023-01-29T18:34:35.809Z,22.43
2023-01-29T18:37:06.098Z,22.17
2023-01-29T18:39:35.853Z,23.20
2023-01-29T18:42:05.704Z,24.07
2023-01-29T18:44:38.213Z,25.70
2023-01-29T18:47:07.823Z,26.53
2023-01-29T18:49:39.291Z,27.10
2023-01-29T18:52:14.549Z,46.33
2023-01-29T18:54:45.496Z,21.20
2023-01-29T18:58:28.747Z,17.10
2023-01-29T19:00:08.428Z,21.03
2023-01-29T19:02:38.648Z,20.00
2023-01-29T19:05:09.310Z,16.00
2023-01-29T19:07:38.426Z,18.67
2023-01-29T19:10:13.007Z,20.37
2023-01-29T19:12:44.035Z,22.00
2023-01-29T19:15:13.902Z,36.10
2023-01-29T19:17:45.890Z,48.13
2023-01-29T19:20:16.120Z,33.30
2023-01-29T19:22:46.893Z,21.00
2023-01-29T19:25:18.279Z,28.73
2023-01-29T19:27:48.703Z,21.90
2023-01-29T19:30:23.781Z,23.63
2023-01-29T19:32:53.554Z,17.80
2023-01-29T19:35:23.163Z,16.40
2023-01-29T19:37:52.547Z,14.07
2023-01-29T19:40:22.091Z,16.50
2023-01-29T19:42:55.091Z,17.50
2023-01-29T19:45:49.088Z,20.73
2023-01-29T19:48:20.879Z,18.47
2023-01-29T19:50:54.442Z,26.90
2023-01-29T19:53:25.033Z,22.07
2023-01-29T19:56:02.986Z,18.70
2023-01-29T19:58:32.870Z,23.13
2023-01-29T20:01:07.892Z,21.33
2023-01-29T20:03:41.224Z,25.50
2023-01-29T20:06:11.767Z,19.27
2023-01-29T20:08:40.834Z,25.53
2023-01-29T20:11:15.664Z,21.97
2023-01-29T20:13:45.910Z,22.27
2023-01-29T20:16:17.743Z,22.63
2023-01-29T20:18:49.460Z,17.80
2023-01-29T20:21:22.751Z,23.63
2023-01-29T20:23:54.896Z,23.40
2023-01-29T20:26:24.764Z,17.77
2023-01-29T20:28:54.533Z,20.37
2023-01-29T20:31:31.372Z,17.63
2023-01-29T20:34:07.209Z,16.70
2023-01-29T20:36:37.710Z,16.27
2023-01-29T20:39:08.084Z,19.20
2023-01-29T20:41:42.061Z,18.80
2023-01-29T20:44:16.237Z,18.43
2023-01-29T20:46:47.819Z,16.77
2023-01-29T20:49:19.108Z,18.40
2023-01-29T20:51:49.535Z,16.37
2023-01-29T20:54:21.465Z,14.67
2023-01-29T20:56:51.153Z,17.50
2023-01-29T20:59:22.583Z,16.77
2023-01-29T21:01:54.048Z,16.40
2023-01-29T21:04:24.416Z,22.63
2023-01-29T21:06:53.832Z,18.07
2023-01-29T21:09:24.415Z,16.50
2023-01-29T21:11:53.396Z,25.83
2023-01-29T21:14:23.780Z,24.40
2023-01-29T21:16:57.792Z,16.73
2023-01-29T21:19:30.089Z,18.60
2023-01-29T21:21:59.844Z,17.10
2023-01-29T21:24:29.037Z,18.03
2023-01-29T21:26:57.853Z,16.07
2023-01-29T21:29:28.267Z,17.53
2023-01-29T21:32:10.394Z,17.67
2023-01-29T21:34:40.376Z,19.90
2023-01-29T21:37:10.864Z,20.10
2023-01-29T21:39:39.136Z,19.07
2023-01-29T21:42:26.718Z,18.50
2023-01-29T21:44:55.134Z,17.67
2023-01-29T21:47:25.433Z,18.67
2023-01-29T21:49:53.923Z,20.17
2023-01-29T21:52:22.567Z,19.87
2023-01-29T21:54:53.681Z,17.73
2023-01-29T21:57:26.776Z,20.27
2023-01-29T21:59:55.745Z,15.43
2023-01-29T22:02:26.648Z,19.27
2023-01-29T22:05:08.758Z,19.40
2023-01-29T22:07:45.552Z,19.17
2023-01-29T22:10:13.829Z,19.63
2023-01-29T22:12:42.214Z,21.37
2023-01-29T22:15:11.498Z,19.00
2023-01-29T22:17:41.641Z,19.33
2023-01-29T22:20:11.293Z,19.53
2023-01-29T22:22:39.538Z,16.80
2023-01-29T22:25:08.241Z,18.67
2023-01-29T22:27:36.426Z,17.67
2023-01-29T22:30:05.308Z,17.53
2023-01-29T22:32:33.837Z,17.83
2023-01-29T22:35:03.322Z,21.03
2023-01-29T22:37:31.579Z,27.03
2023-01-29T22:39:59.668Z,25.80
2023-01-29T22:42:28.067Z,19.17
2023-01-29T22:44:56.189Z,20.10
2023-01-29T22:47:24.405Z,19.83
2023-01-29T22:49:52.537Z,22.43
2023-01-29T22:52:23.520Z,21.83
2023-01-29T22:54:51.663Z,21.67
2023-01-29T22:57:19.891Z,23.17
2023-01-29T22:59:48.011Z,16.63
2023-01-29T23:02:16.196Z,20.07
2023-01-29T23:04:44.415Z,21.23
2023-01-29T23:07:12.492Z,21.00
2023-01-29T23:09:42.044Z,24.37
2023-01-29T23:12:10.139Z,21.23
2023-01-29T23:14:38.248Z,24.43
2023-01-29T23:17:06.356Z,18.60
2023-01-29T23:19:34.469Z,21.10
2023-01-29T23:22:02.851Z,18.87
2023-01-29T23:24:31.088Z,21.27
2023-01-29T23:27:14.711Z,20.10
2023-01-29T23:29:43.149Z,23.40
2023-01-29T23:32:11.714Z,25.70
2023-01-29T23:34:40.028Z,21.10
2023-01-29T23:37:08.205Z,20.57
2023-01-29T23:39:36.582Z,22.30
2023-01-29T23:42:06.326Z,21.40
2023-01-29T23:44:35.601Z,19.70
2023-01-29T23:47:03.882Z,18.90
2023-01-29T23:49:32.002Z,21.50
2023-01-29T23:52:00.218Z,21.30
2023-01-29T23:54:28.569Z,23.53
2023-01-29T23:56:56.816Z,21.00
2023-01-29T23:59:28.320Z,21.87
